Change the Weather History Date:

Monday, March 17, 2014

  Actual Average Record
Temperature  
Mean Temperature 32 °F -  
Max Temperature 44 °F 42 °F 80 °F (2012)
Min Temperature 21 °F 26 °F 3 °F (1993)
Degree Days  
Heating Degree Days 33    
Moisture  
Dew Point 22 °F    
Average Humidity 70    
Maximum Humidity 82    
Minimum Humidity 54    
Precipitation  
Precipitation 0.00 in - - ()
Sea Level Pressure  
Sea Level Pressure 29.76 in    
Wind  
Wind Speed 14 mph (SSE)    
Max Wind Speed 24 mph    
Max Gust Speed 29 mph    
Visibility 10 miles    
Events      
Averages and records for this station are not official NWS values.
T = Trace of Precipitation, MM = Missing Value Source: NWS Daily Summary

Daily Weather History Graph

Daily Weather History Graph

Search for Another Location

Airport or City:

Trip Planner

Search our weather history database for the weather conditions in past years. The results will help you decide how hot, cold, wet, or windy it might be!

Date:

Astronomy

Mar. 17, 2014 Rise Set
Actual Time 7:21 AM CDT 7:21 PM CDT
Civil Twilight 6:53 AM CDT 7:49 PM CDT
Nautical Twilight 6:20 AM CDT 8:22 PM CDT
Astronomical Twilight 5:47 AM CDT 8:56 PM CDT
Moon 8:41 PM CDT (3/17) 7:35 AM CDT (3/17)
Length of Visible Light 12h 56m
Length of Day
12h 00m
Full, 99% of the Moon is Illuminated
Mar 17
Full
Mar 23
Last Quarter
Mar 30
New
Apr 7
First Quarter
Apr 15
Full

Hourly Weather History & Observations

Time (CDT) Temp. Windchill Dew Point Humidity Pressure Visibility Wind Dir Wind Speed Gust Speed Precip Events Conditions
12:15 AM 21.9 °F 11.7 °F 16.3 °F 79% 30.08 in 10.0 mi SE 9.2 mph - N/A   Clear
12:35 AM 21.9 °F 11.7 °F 16.5 °F 80% 30.07 in 10.0 mi SE 9.2 mph - N/A   Clear
12:55 AM 22.1 °F 11.3 °F 16.7 °F 80% 30.06 in 10.0 mi SE 10.4 mph - N/A   Clear
1:15 AM 21.7 °F 10.2 °F 16.3 °F 80% 30.06 in 10.0 mi SE 11.5 mph - N/A   Clear
1:35 AM 21.7 °F 10.2 °F 16.7 °F 81% 30.04 in 10.0 mi SSE 11.5 mph - N/A   Mostly Cloudy
1:55 AM 21.7 °F 10.8 °F 17.1 °F 82% 30.04 in 10.0 mi SSE 10.4 mph - N/A   Scattered Clouds
2:15 AM 21.9 °F 11.0 °F 17.2 °F 82% 30.04 in 10.0 mi SSE 10.4 mph - N/A   Mostly Cloudy
2:35 AM 22.1 °F 11.3 °F 17.4 °F 82% 30.03 in 10.0 mi SSE 10.4 mph - N/A   Mostly Cloudy
2:55 AM 22.3 °F 11.5 °F 17.2 °F 81% 30.02 in 10.0 mi SSE 10.4 mph - N/A   Mostly Cloudy
3:15 AM 22.5 °F 11.1 °F 16.9 °F 79% 30.00 in 10.0 mi SSE 11.5 mph - N/A   Mostly Cloudy
3:35 AM 22.5 °F 9.4 °F 17.2 °F 80% 29.98 in 10.0 mi SSE 15.0 mph - N/A   Mostly Cloudy
3:55 AM 22.5 °F 9.4 °F 16.9 °F 79% 29.97 in 10.0 mi SSE 15.0 mph - N/A   Mostly Cloudy
4:15 AM 22.1 °F 8.0 °F 16.7 °F 80% 29.94 in 10.0 mi SSE 17.3 mph 23.0 mph N/A   Scattered Clouds
4:35 AM 22.5 °F 8.9 °F 16.5 °F 78% 29.94 in 10.0 mi South 16.1 mph - N/A   Clear
4:55 AM 22.5 °F 9.4 °F 15.6 °F 75% 29.92 in 10.0 mi South 15.0 mph 20.7 mph N/A   Mostly Cloudy
5:15 AM 22.5 °F 8.9 °F 15.3 °F 74% 29.92 in 10.0 mi South 16.1 mph 23.0 mph N/A   Overcast
5:35 AM 22.8 °F 9.9 °F 15.4 °F 73% 29.90 in 10.0 mi South 15.0 mph - N/A   Mostly Cloudy
5:55 AM 23.0 °F 9.2 °F 15.8 °F 74% 29.89 in 10.0 mi South 17.3 mph - N/A   Overcast
6:15 AM 22.8 °F 8.5 °F 15.8 °F 74% 29.87 in 10.0 mi South 18.4 mph 21.9 mph N/A   Overcast
6:35 AM 22.5 °F 9.4 °F 16.3 °F 77% 29.87 in 10.0 mi South 15.0 mph - N/A   Scattered Clouds
6:55 AM 22.5 °F 9.4 °F 16.5 °F 78% 29.87 in 10.0 mi South 15.0 mph - N/A   Scattered Clouds
7:15 AM 22.5 °F 9.4 °F 16.7 °F 79% 29.86 in 10.0 mi South 15.0 mph - N/A   Scattered Clouds
7:35 AM 23.0 °F 10.1 °F 16.9 °F 77% 29.85 in 10.0 mi South 15.0 mph 23.0 mph N/A   Mostly Cloudy
7:55 AM 23.0 °F 8.0 °F 17.2 °F 79% 29.84 in 10.0 mi South 20.7 mph - N/A   Overcast
8:15 AM 23.0 °F 8.7 °F 17.2 °F 79% 29.84 in 10.0 mi South 18.4 mph 21.9 mph N/A   Overcast
8:35 AM 23.2 °F 9.0 °F 17.2 °F 78% 29.82 in 10.0 mi South 18.4 mph 21.9 mph N/A   Mostly Cloudy
8:55 AM 23.9 °F 9.9 °F 17.2 °F 76% 29.82 in 10.0 mi South 18.4 mph - N/A   Overcast
9:15 AM 24.6 °F 10.9 °F 17.8 °F 75% 29.81 in 10.0 mi South 18.4 mph 23.0 mph N/A   Overcast
9:35 AM 25.2 °F 12.9 °F 17.8 °F 74% 29.80 in 10.0 mi South 15.0 mph - N/A   Mostly Cloudy
9:55 AM 26.1 °F 12.0 °F 18.0 °F 71% 29.79 in 10.0 mi SSE 20.7 mph - N/A   Mostly Cloudy
10:15 AM 28.0 °F 14.9 °F 18.9 °F 68% 29.77 in 10.0 mi SSE 19.6 mph 28.8 mph N/A   Clear
10:35 AM 27.9 °F 14.7 °F 18.9 °F 69% 29.77 in 10.0 mi SSE 19.6 mph 25.3 mph N/A   Clear
10:55 AM 29.3 °F 16.2 °F 19.8 °F 68% 29.74 in 10.0 mi SSE 20.7 mph 27.6 mph N/A   Mostly Cloudy
11:15 AM 30.4 °F 18.0 °F 20.1 °F 66% 29.75 in 10.0 mi South 19.6 mph 24.2 mph N/A   Scattered Clouds
11:35 AM 30.4 °F 17.7 °F 20.5 °F 67% 29.73 in 10.0 mi South 20.7 mph 25.3 mph N/A   Clear
11:55 AM 31.6 °F 19.7 °F 21.4 °F 66% 29.73 in 10.0 mi SSE 19.6 mph 26.5 mph N/A   Scattered Clouds
12:15 PM 32.9 °F 21.3 °F 22.3 °F 65% 29.72 in 10.0 mi South 19.6 mph 25.3 mph N/A   Clear
12:35 PM 33.8 °F 22.5 °F 22.6 °F 64% 29.70 in 10.0 mi South 19.6 mph - N/A   Clear
12:55 PM 35.2 °F 24.1 °F 22.8 °F 61% 29.69 in 10.0 mi South 20.7 mph 26.5 mph N/A   Clear
1:15 PM 37.2 °F 27.3 °F 24.6 °F 60% 29.68 in 10.0 mi SSE 18.4 mph 23.0 mph N/A   Clear
1:35 PM 37.4 °F 27.5 °F 24.3 °F 59% 29.68 in 10.0 mi South 18.4 mph 25.3 mph N/A   Clear
1:55 PM 39.2 °F 29.0 °F 26.1 °F 59% 29.66 in 10.0 mi South 21.9 mph 25.3 mph N/A   Clear
2:15 PM 40.1 °F 29.9 °F 25.9 °F 57% 29.63 in 10.0 mi South 23.0 mph 28.8 mph N/A   Clear
2:35 PM 41.5 °F 32.1 °F 27.0 °F 56% 29.62 in 10.0 mi SSE 21.9 mph 28.8 mph N/A   Clear
2:55 PM 41.9 °F 32.6 °F 26.6 °F 55% 29.61 in 10.0 mi South 21.9 mph 26.5 mph N/A   Clear
3:15 PM 42.8 °F 34.0 °F 27.1 °F 54% 29.60 in 10.0 mi South 20.7 mph 25.3 mph N/A   Clear
3:35 PM 42.6 °F 33.5 °F 27.9 °F 56% 29.59 in 10.0 mi South 21.9 mph 26.5 mph N/A   Clear
3:55 PM 42.8 °F 34.0 °F 27.1 °F 54% 29.59 in 10.0 mi South 20.7 mph 25.3 mph N/A   Clear
4:15 PM 43.3 °F 34.0 °F 27.5 °F 54% 29.58 in 10.0 mi South 24.2 mph - N/A   Clear
4:35 PM 43.7 °F 35.4 °F 28.4 °F 55% 29.58 in 10.0 mi South 19.6 mph 25.3 mph N/A   Clear
4:55 PM 43.7 °F 35.2 °F 28.2 °F 54% 29.58 in 10.0 mi South 20.7 mph 27.6 mph N/A   Clear
5:15 PM 42.8 °F 34.5 °F 28.4 °F 57% 29.57 in 10.0 mi South 18.4 mph 23.0 mph N/A   Clear
5:35 PM 42.3 °F 34.4 °F 27.7 °F 56% 29.57 in 10.0 mi South 16.1 mph 23.0 mph N/A   Clear
5:55 PM 41.4 °F 33.3 °F 26.8 °F 56% 29.57 in 10.0 mi SSE 16.1 mph 19.6 mph N/A   Clear
6:15 PM 41.0 °F 33.1 °F 26.8 °F 57% 29.57 in 10.0 mi South 15.0 mph - N/A   Clear
6:35 PM 40.1 °F 32.0 °F 25.9 °F 57% 29.57 in 10.0 mi South 15.0 mph - N/A   Clear
6:55 PM 39.7 °F 32.3 °F 25.5 °F 57% 29.57 in 10.0 mi SSE 12.7 mph - N/A   Clear
7:15 PM 37.9 °F 31.5 °F 26.4 °F 63% 29.57 in 10.0 mi SSE 9.2 mph - N/A   Clear
7:35 PM 36.7 °F 29.4 °F 26.4 °F 66% 29.58 in 10.0 mi SSE 10.4 mph - N/A   Clear
7:55 PM 35.8 °F 28.8 °F 26.2 °F 68% 29.57 in 10.0 mi SE 9.2 mph - N/A   Clear
8:15 PM 35.8 °F 28.3 °F 26.6 °F 69% 29.58 in 10.0 mi SE 10.4 mph - N/A   Clear
8:35 PM 35.2 °F 27.6 °F 26.6 °F 71% 29.58 in 10.0 mi SE 10.4 mph - N/A   Clear
8:55 PM 35.1 °F 27.9 °F 26.6 °F 71% 29.59 in 10.0 mi SE 9.2 mph - N/A   Clear
9:15 PM 35.1 °F 26.9 °F 26.6 °F 71% 29.59 in 10.0 mi SE 11.5 mph - N/A   Clear
9:35 PM 34.5 °F 26.7 °F 26.6 °F 73% 29.60 in 10.0 mi SE 10.4 mph - N/A   Clear
9:55 PM 33.4 °F 25.9 °F 27.7 °F 79% 29.60 in 10.0 mi ESE 9.2 mph - N/A   Clear
10:35 PM 33.1 °F 26.1 °F 27.5 °F 80% 29.60 in 10.0 mi ESE 8.1 mph - N/A   Clear
10:55 PM 32.9 °F 25.3 °F 27.5 °F 81% 29.60 in 10.0 mi ESE 9.2 mph - N/A   Clear
11:15 PM 32.9 °F 25.3 °F 27.5 °F 81% 29.60 in 10.0 mi ESE 9.2 mph - N/A   Clear
11:35 PM 32.7 °F 24.5 °F 27.5 °F 81% 29.60 in 10.0 mi ESE 10.4 mph - N/A   Clear
11:55 PM 32.5 °F 24.2 °F 27.5 °F 82% 29.60 in 10.0 mi ESE 10.4 mph - N/A   Clear